Time;durP1;ratioP1;P1;durP2;ratioP2;P2;SDS_P1;SDS_P2;PMS_P1;PMS_P2;Temp;Humidity;BMP_temperature;BMP_pressure;BME280_temperature;BME280_humidity;BME280_pressure;Samples;Min_cycle;Max_cycle;Signal;HPM_P1;HPM_P2
2023/01/31 00:01:32;;;;;;;21.20;11.50;;;19.60;99.90;;;;;;5053939;28;20052;-54
2023/01/31 00:04:03;;;;;;;18.60;11.75;;;19.50;99.90;;;;;;5055985;28;20028;-55
2023/01/31 00:06:35;;;;;;;18.80;11.65;;;19.50;99.90;;;;;;5021735;28;20064;-54
2023/01/31 00:09:02;;;;;;;17.27;11.30;;;19.50;99.90;;;;;;5038010;28;20033;-54
2023/01/31 00:11:29;;;;;;;18.37;11.50;;;19.50;99.90;;;;;;5037911;28;20024;-54
2023/01/31 00:13:56;;;;;;;20.23;11.05;;;19.50;99.90;;;;;;5055716;28;20385;-54
2023/01/31 00:16:22;;;;;;;17.27;11.05;;;19.50;99.90;;;;;;5055647;28;20028;-54
2023/01/31 00:18:48;;;;;;;18.80;11.15;;;19.50;99.90;;;;;;5055599;28;20036;-54
2023/01/31 00:21:16;;;;;;;18.42;11.82;;;19.50;99.90;;;;;;5037778;28;20029;-54
2023/01/31 00:23:44;;;;;;;18.33;12.20;;;19.50;99.90;;;;;;5055719;28;20473;-54
2023/01/31 00:26:24;;;;;;;19.02;11.75;;;19.50;99.90;;;;;;5055430;28;20567;-53
2023/01/31 00:28:52;;;;;;;16.38;11.30;;;19.50;99.90;;;;;;5055337;28;20031;-54
2023/01/31 00:31:20;;;;;;;16.50;12.20;;;19.40;99.90;;;;;;5055178;28;20061;-53
2023/01/31 00:33:47;;;;;;;16.15;11.00;;;19.40;99.90;;;;;;5055648;28;20025;-53
2023/01/31 00:36:19;;;;;;;17.60;11.70;;;19.40;99.90;;;;;;5055529;28;20039;-54
2023/01/31 00:38:48;;;;;;;15.32;10.98;;;19.40;99.90;;;;;;5037773;28;20090;-54
2023/01/31 00:41:14;;;;;;;18.08;11.75;;;19.40;99.90;;;;;;5055413;28;20104;-54
2023/01/31 00:43:40;;;;;;;18.95;12.60;;;19.40;99.90;;;;;;5055152;28;20025;-53
2023/01/31 00:46:06;;;;;;;17.08;10.65;;;19.40;99.90;;;;;;5054953;28;20079;-54
2023/01/31 00:48:32;;;;;;;20.63;12.85;;;19.40;99.90;;;;;;5055023;28;20040;-54
2023/01/31 00:50:58;;;;;;;16.00;11.50;;;19.40;99.90;;;;;;5055137;28;20094;-53
2023/01/31 00:53:24;;;;;;;16.73;11.52;;;19.40;99.90;;;;;;5055029;28;20458;-54
2023/01/31 00:56:00;;;;;;;15.77;10.80;;;19.40;99.90;;;;;;5054924;28;20509;-54
2023/01/31 00:58:26;;;;;;;15.05;10.07;;;19.40;99.90;;;;;;5054845;28;20021;-54
2023/01/31 01:00:51;;;;;;;18.75;11.60;;;19.40;99.90;;;;;;5055354;28;20450;-53
2023/01/31 01:03:17;;;;;;;15.10;10.38;;;19.40;99.90;;;;;;5055253;28;20522;-54
2023/01/31 01:05:43;;;;;;;17.45;11.70;;;19.40;99.90;;;;;;5037022;28;20017;-54
2023/01/31 01:08:09;;;;;;;15.73;11.05;;;19.40;99.90;;;;;;5054620;28;20029;-55
2023/01/31 01:10:36;;;;;;;16.80;11.52;;;19.40;99.90;;;;;;5054662;28;20443;-54
2023/01/31 01:13:04;;;;;;;18.77;11.35;;;19.40;99.90;;;;;;5054246;28;20027;-53
2023/01/31 01:15:30;;;;;;;15.55;10.80;;;19.30;99.90;;;;;;5054587;28;20473;-54
2023/01/31 01:17:56;;;;;;;14.02;10.38;;;19.30;99.90;;;;;;5054498;28;20358;-53
2023/01/31 01:20:22;;;;;;;15.75;10.13;;;19.30;99.90;;;;;;5054661;28;20036;-54
2023/01/31 01:22:48;;;;;;;15.85;10.93;;;19.30;99.90;;;;;;5054511;28;20031;-53
2023/01/31 01:25:14;;;;;;;16.98;11.20;;;19.30;99.90;;;;;;5054264;28;20108;-55
2023/01/31 01:27:39;;;;;;;16.17;10.60;;;19.30;99.90;;;;;;5054240;28;20029;-54
2023/01/31 01:30:06;;;;;;;15.30;10.07;;;19.30;99.90;;;;;;5054223;28;20047;-54
2023/01/31 01:32:32;;;;;;;14.93;10.20;;;19.30;99.90;;;;;;5054169;28;20067;-53
2023/01/31 01:34:58;;;;;;;16.80;10.65;;;19.30;99.90;;;;;;5036340;28;20385;-55
2023/01/31 01:37:23;;;;;;;13.88;9.48;;;19.30;99.90;;;;;;5054094;28;20021;-55
2023/01/31 01:39:51;;;;;;;16.65;9.73;;;19.30;99.90;;;;;;5036405;28;20052;-55
2023/01/31 01:42:19;;;;;;;15.13;10.25;;;19.30;99.90;;;;;;5036406;28;20048;-55
2023/01/31 01:44:51;;;;;;;16.02;11.10;;;19.20;99.90;;;;;;5036537;28;20056;-54
2023/01/31 01:47:26;;;;;;;15.63;10.48;;;19.20;99.90;;;;;;5054324;28;20044;-54
2023/01/31 01:50:00;;;;;;;14.70;9.80;;;19.20;99.90;;;;;;5053945;28;20032;-54
2023/01/31 01:52:30;;;;;;;14.60;10.15;;;19.20;99.90;;;;;;5053954;28;20102;-55
2023/01/31 01:55:02;;;;;;;17.52;11.23;;;19.20;99.90;;;;;;5053978;28;20174;-54
2023/01/31 01:57:36;;;;;;;14.55;10.73;;;19.20;99.90;;;;;;5053794;28;20032;-54
2023/01/31 02:00:20;;;;;;;15.25;10.13;;;19.20;99.90;;;;;;5054253;28;20033;-55
2023/01/31 02:02:49;;;;;;;16.20;10.80;;;19.20;99.90;;;;;;5053747;28;20017;-55
2023/01/31 02:05:20;;;;;;;13.40;9.80;;;19.20;99.90;;;;;;5053674;28;20021;-56
2023/01/31 02:07:46;;;;;;;15.57;10.63;;;19.20;99.90;;;;;;5053572;28;20032;-55
2023/01/31 02:10:21;;;;;;;14.82;9.70;;;19.10;99.90;;;;;;5053427;28;20425;-54
2023/01/31 02:12:47;;;;;;;14.25;9.30;;;19.20;99.90;;;;;;5053805;28;20025;-54
2023/01/31 02:15:13;;;;;;;14.48;9.88;;;19.10;99.90;;;;;;5053504;28;20116;-55
2023/01/31 02:17:39;;;;;;;15.57;10.10;;;19.10;99.90;;;;;;5053210;28;20029;-56
2023/01/31 02:20:20;;;;;;;16.50;9.77;;;19.10;99.90;;;;;;5053366;28;20025;-55
2023/01/31 02:23:04;;;;;;;14.82;9.88;;;19.10;99.90;;;;;;5052925;28;20025;-56
2023/01/31 02:25:56;;;;;;;16.63;9.93;;;19.10;99.90;;;;;;5053349;28;20155;-54
2023/01/31 02:28:40;;;;;;;15.00;9.68;;;19.10;99.90;;;;;;5053777;28;20028;-54
2023/01/31 02:31:30;;;;;;;13.43;9.27;;;19.10;99.90;;;;;;5053238;28;20496;-53
2023/01/31 02:34:34;;;;;;;14.18;8.98;;;19.10;99.90;;;;;;5053132;28;20032;-54
2023/01/31 02:37:37;;;;;;;15.32;9.45;;;19.10;99.90;;;;;;5013078;28;20045;-54
2023/01/31 02:40:12;;;;;;;14.38;9.05;;;19.10;99.90;;;;;;5052963;28;20128;-54
2023/01/31 02:43:01;;;;;;;14.88;9.65;;;19.00;99.90;;;;;;5035049;28;20029;-54
2023/01/31 02:45:36;;;;;;;13.20;8.73;;;19.00;99.90;;;;;;5052945;28;20028;-54
2023/01/31 02:48:46;;;;;;;14.23;9.52;;;19.00;99.90;;;;;;5052777;28;20481;-54
2023/01/31 02:51:18;;;;;;;12.30;8.68;;;19.00;99.90;;;;;;4991188;28;20403;-54
2023/01/31 02:53:54;;;;;;;15.43;9.52;;;19.00;99.90;;;;;;4991555;28;20027;-54
2023/01/31 02:56:29;;;;;;;15.40;10.20;;;19.00;99.90;;;;;;5027124;28;20036;-54
2023/01/31 02:58:59;;;;;;;15.05;9.07;;;19.00;99.90;;;;;;5052733;28;20796;-54
2023/01/31 03:01:47;;;;;;;14.05;9.68;;;19.00;99.90;;;;;;5052872;28;20501;-53
2023/01/31 03:04:13;;;;;;;;;;;18.90;99.90;;;;;;5052820;28;20038;-52
2023/01/31 03:06:53;;;;;;;14.30;9.05;;;19.00;99.90;;;;;;5052588;28;20066;-52
2023/01/31 03:10:06;;;;;;;13.82;9.07;;;19.00;99.90;;;;;;5052483;28;20033;-54
2023/01/31 03:12:48;;;;;;;10.93;8.15;;;18.90;99.90;;;;;;5049372;28;20033;-53
2023/01/31 03:15:22;;;;;;;13.15;8.77;;;18.90;99.90;;;;;;5052413;28;20086;-53
2023/01/31 03:18:14;;;;;;;13.07;9.50;;;18.90;99.90;;;;;;5052348;28;20070;-54
2023/01/31 03:20:57;;;;;;;15.00;8.82;;;18.90;99.90;;;;;;5052349;28;20029;-53
2023/01/31 03:23:28;;;;;;;14.18;9.25;;;18.90;99.90;;;;;;5052599;28;20063;-53
2023/01/31 03:25:56;;;;;;;12.63;8.63;;;18.90;99.90;;;;;;5052423;28;20500;-52
2023/01/31 03:28:27;;;;;;;14.52;9.43;;;18.90;99.90;;;;;;5052218;28;20052;-53
2023/01/31 03:30:59;;;;;;;14.05;8.80;;;18.90;99.90;;;;;;5052349;28;20028;-53
2023/01/31 03:33:37;;;;;;;14.30;9.98;;;18.90;99.90;;;;;;5052485;28;20377;-53
2023/01/31 03:36:14;;;;;;;12.80;8.45;;;18.90;99.90;;;;;;5052123;28;20025;-51
2023/01/31 03:38:57;;;;;;;14.07;9.20;;;18.90;99.90;;;;;;5052175;28;20025;-53
2023/01/31 03:41:41;;;;;;;11.52;8.45;;;18.90;99.90;;;;;;5052238;28;20032;-54
2023/01/31 03:44:24;;;;;;;11.43;8.70;;;18.80;99.90;;;;;;5052112;28;20549;-53
2023/01/31 03:46:57;;;;;;;12.32;8.02;;;18.80;99.90;;;;;;5052087;28;20039;-53
2023/01/31 03:49:26;;;;;;;12.73;8.15;;;18.80;99.90;;;;;;5052070;28;20547;-52
2023/01/31 03:52:00;;;;;;;12.48;8.13;;;18.80;99.90;;;;;;5052230;28;20473;-53
2023/01/31 03:54:30;;;;;;;12.32;8.57;;;18.80;99.90;;;;;;5052255;28;20021;-53
2023/01/31 03:57:29;;;;;;;15.02;9.30;;;18.80;99.90;;;;;;5052132;28;20020;-53
2023/01/31 03:59:58;;;;;;;13.15;8.15;;;18.80;99.90;;;;;;5052557;28;20043;-52
2023/01/31 04:02:34;;;;;;;14.13;8.27;;;18.80;99.90;;;;;;5052088;28;20264;-53
2023/01/31 04:05:05;;;;;;;10.45;7.75;;;18.80;99.90;;;;;;5051921;28;20032;-54
2023/01/31 04:07:31;;;;;;;11.27;8.75;;;18.80;99.90;;;;;;5051957;28;20013;-52
2023/01/31 04:09:57;;;;;;;12.77;8.07;;;18.80;99.90;;;;;;5051901;28;20179;-53
2023/01/31 04:12:23;;;;;;;11.38;7.30;;;18.80;99.90;;;;;;5051812;28;20032;-52
2023/01/31 04:14:49;;;;;;;11.00;7.90;;;18.80;99.90;;;;;;5051818;28;20033;-52
2023/01/31 04:17:14;;;;;;;12.60;8.02;;;18.70;99.90;;;;;;5034090;28;20029;-53
2023/01/31 04:19:40;;;;;;;13.68;8.05;;;18.70;99.90;;;;;;5051844;28;20029;-53
2023/01/31 04:22:06;;;;;;;11.90;8.05;;;18.80;99.90;;;;;;5034225;28;20066;-54
2023/01/31 04:24:32;;;;;;;12.85;8.20;;;18.70;99.90;;;;;;5033877;28;20025;-53
2023/01/31 04:26:57;;;;;;;9.40;7.05;;;18.70;99.90;;;;;;5051776;28;20100;-52
2023/01/31 04:29:23;;;;;;;12.95;7.75;;;18.70;99.90;;;;;;5051364;28;20115;-52
2023/01/31 04:31:49;;;;;;;11.15;8.02;;;18.70;99.90;;;;;;5051704;28;20033;-53
2023/01/31 04:34:15;;;;;;;12.00;7.43;;;18.70;99.90;;;;;;5051541;28;20027;-52
2023/01/31 04:36:40;;;;;;;12.95;7.55;;;18.70;99.90;;;;;;5051449;28;20086;-49
2023/01/31 04:39:08;;;;;;;12.88;7.07;;;18.70;99.90;;;;;;5051545;28;20025;-51
2023/01/31 04:41:34;;;;;;;9.75;7.00;;;18.70;99.90;;;;;;5051521;28;20021;-51
2023/01/31 04:44:00;;;;;;;12.27;6.80;;;18.60;99.90;;;;;;5051716;28;20482;-51
2023/01/31 04:46:25;;;;;;;13.05;7.55;;;18.60;99.90;;;;;;5052278;28;20027;-53
2023/01/31 04:48:51;;;;;;;10.73;7.57;;;18.60;99.90;;;;;;5054800;28;20029;-52
2023/01/31 04:51:17;;;;;;;11.38;6.55;;;18.70;99.90;;;;;;5055121;28;20385;-52
2023/01/31 04:53:43;;;;;;;10.13;7.60;;;18.60;99.90;;;;;;5054883;28;20499;-52
2023/01/31 04:56:10;;;;;;;11.77;7.32;;;18.70;99.90;;;;;;5054910;28;20036;-52
2023/01/31 04:58:36;;;;;;;11.63;6.97;;;18.60;99.90;;;;;;5054994;28;20017;-52
2023/01/31 05:01:01;;;;;;;9.88;6.93;;;18.60;99.90;;;;;;5055752;28;20397;-52
2023/01/31 05:03:27;;;;;;;10.80;6.97;;;18.60;99.90;;;;;;5055154;28;20385;-52
2023/01/31 05:05:53;;;;;;;9.75;6.55;;;18.60;99.90;;;;;;5036957;28;20032;-52
2023/01/31 05:08:19;;;;;;;9.68;6.55;;;18.60;99.90;;;;;;5054589;28;20021;-52
2023/01/31 05:10:44;;;;;;;11.73;6.40;;;18.60;99.90;;;;;;5054468;28;20484;-53
2023/01/31 05:13:10;;;;;;;10.35;6.75;;;18.50;99.90;;;;;;5054705;28;20020;-54
2023/01/31 05:15:37;;;;;;;11.63;7.03;;;18.60;99.90;;;;;;5054585;28;20021;-53
2023/01/31 05:18:03;;;;;;;9.25;6.82;;;18.50;99.90;;;;;;5054734;28;20370;-54
2023/01/31 05:20:38;;;;;;;9.80;6.13;;;18.50;99.90;;;;;;5054741;28;20016;-55
2023/01/31 05:23:04;;;;;;;11.90;6.43;;;18.60;99.90;;;;;;5054297;28;20021;-53
2023/01/31 05:25:30;;;;;;;9.98;6.07;;;18.50;99.90;;;;;;5054624;28;20025;-54
2023/01/31 05:27:56;;;;;;;9.48;6.03;;;18.50;99.90;;;;;;5054379;28;20025;-54
2023/01/31 05:30:25;;;;;;;8.23;6.22;;;18.50;99.90;;;;;;5054345;28;20033;-53
2023/01/31 05:32:51;;;;;;;9.60;6.03;;;18.50;99.90;;;;;;5054420;28;20025;-54
2023/01/31 05:35:17;;;;;;;8.02;5.97;;;18.50;99.90;;;;;;5054352;28;20043;-59
2023/01/31 05:37:44;;;;;;;8.68;5.95;;;18.50;99.90;;;;;;5054172;28;20473;-53
2023/01/31 05:40:12;;;;;;;9.13;5.75;;;18.50;99.90;;;;;;5054298;28;20024;-52
2023/01/31 05:42:38;;;;;;;7.10;5.47;;;18.50;99.90;;;;;;5054152;28;20481;-52
2023/01/31 05:45:04;;;;;;;10.48;6.03;;;18.50;99.90;;;;;;5054103;28;20036;-53
2023/01/31 05:47:30;;;;;;;8.03;5.90;;;18.40;99.90;;;;;;5054209;28;20071;-53
2023/01/31 05:49:56;;;;;;;7.05;5.18;;;18.40;99.90;;;;;;5053751;28;20029;-53
2023/01/31 05:52:22;;;;;;;9.02;5.78;;;18.40;99.90;;;;;;5053820;28;20032;-54
2023/01/31 05:54:47;;;;;;;8.55;5.18;;;18.40;99.90;;;;;;5053816;28;20029;-52
2023/01/31 05:57:14;;;;;;;8.05;5.55;;;18.40;99.90;;;;;;5053772;28;20021;-51
2023/01/31 05:59:40;;;;;;;9.45;6.32;;;18.40;99.90;;;;;;5052715;28;20021;-52
2023/01/31 06:02:07;;;;;;;7.38;5.07;;;18.40;99.90;;;;;;5053650;28;20025;-53
2023/01/31 06:04:33;;;;;;;7.63;5.50;;;18.40;99.90;;;;;;5053720;28;20505;-53
2023/01/31 06:06:59;;;;;;;10.65;5.40;;;18.40;99.90;;;;;;5053677;28;20025;-53
2023/01/31 06:09:25;;;;;;;7.57;4.75;;;18.40;99.90;;;;;;5053546;28;20043;-52
2023/01/31 06:11:51;;;;;;;6.75;5.05;;;18.40;99.90;;;;;;5053443;28;20024;-53
2023/01/31 06:14:17;;;;;;;10.27;5.57;;;18.40;99.90;;;;;;5053326;28;20539;-52
2023/01/31 06:16:43;;;;;;;10.15;5.95;;;18.40;99.90;;;;;;5053459;28;20029;-54
2023/01/31 06:19:08;;;;;;;9.48;5.18;;;18.30;99.90;;;;;;5035405;28;20082;-53
2023/01/31 06:21:34;;;;;;;7.97;5.10;;;18.40;99.90;;;;;;5053676;28;20040;-54
2023/01/31 06:24:00;;;;;;;7.85;4.78;;;18.30;99.90;;;;;;5053486;28;20017;-54
2023/01/31 06:26:27;;;;;;;7.05;4.60;;;18.30;99.90;;;;;;5053284;28;20040;-55
2023/01/31 06:28:52;;;;;;;13.60;5.03;;;18.30;99.90;;;;;;5053068;28;20037;-54
2023/01/31 06:31:18;;;;;;;8.63;4.85;;;18.30;99.90;;;;;;5053156;28;20349;-53
2023/01/31 06:33:44;;;;;;;9.35;4.80;;;18.30;99.90;;;;;;5053055;28;20021;-54
2023/01/31 06:36:10;;;;;;;6.50;4.32;;;18.30;99.90;;;;;;5035293;28;20024;-54
2023/01/31 06:38:36;;;;;;;8.40;4.88;;;18.30;99.90;;;;;;5053089;28;20389;-52
2023/01/31 06:41:01;;;;;;;8.23;4.70;;;18.30;99.90;;;;;;5053067;28;20111;-54
2023/01/31 06:43:27;;;;;;;6.22;4.38;;;18.30;99.90;;;;;;5052970;28;20032;-54
2023/01/31 06:45:53;;;;;;;8.57;4.65;;;18.30;99.90;;;;;;5052880;28;20021;-55
2023/01/31 06:48:19;;;;;;;7.95;4.72;;;18.30;99.90;;;;;;5052748;28;20021;-54
2023/01/31 06:50:45;;;;;;;7.43;4.38;;;18.20;99.90;;;;;;5052695;28;20033;-54
2023/01/31 06:53:11;;;;;;;6.95;4.38;;;18.20;99.90;;;;;;5052760;28;20017;-53
2023/01/31 06:55:37;;;;;;;6.30;4.43;;;18.30;99.90;;;;;;5052703;28;20060;-55
2023/01/31 06:58:03;;;;;;;6.43;4.15;;;18.20;99.90;;;;;;5052885;28;20427;-54
2023/01/31 07:00:29;;;;;;;8.05;3.78;;;18.20;99.90;;;;;;5052611;28;20120;-54
2023/01/31 07:02:55;;;;;;;8.85;4.50;;;18.20;99.90;;;;;;5034554;28;20356;-52
2023/01/31 07:05:22;;;;;;;8.68;4.50;;;18.20;99.90;;;;;;5052463;28;20462;-53
2023/01/31 07:07:48;;;;;;;7.38;4.15;;;18.20;99.90;;;;;;5052623;28;20021;-54
2023/01/31 07:10:15;;;;;;;10.27;5.65;;;18.20;99.90;;;;;;5052098;28;20040;-54
2023/01/31 07:12:41;;;;;;;7.35;4.13;;;18.20;99.90;;;;;;5052520;28;20090;-53
2023/01/31 07:15:09;;;;;;;7.55;4.10;;;18.20;99.90;;;;;;5052700;28;20040;-54
2023/01/31 07:17:35;;;;;;;8.38;4.28;;;18.20;99.90;;;;;;5052402;28;20024;-55
2023/01/31 07:20:00;;;;;;;5.95;4.18;;;18.10;99.90;;;;;;5052360;28;20455;-55
2023/01/31 07:22:27;;;;;;;8.35;4.20;;;18.20;99.90;;;;;;5052293;28;20017;-55
2023/01/31 07:24:52;;;;;;;5.82;4.18;;;18.10;99.90;;;;;;5052344;28;20032;-55
2023/01/31 07:27:18;;;;;;;6.13;4.00;;;18.10;99.90;;;;;;5052293;28;20040;-54
2023/01/31 07:29:44;;;;;;;5.75;4.25;;;18.10;99.90;;;;;;5052066;28;20108;-54
2023/01/31 07:32:10;;;;;;;6.60;4.70;;;18.10;99.90;;;;;;5052205;28;20108;-54
2023/01/31 07:34:36;;;;;;;8.32;4.60;;;18.10;99.90;;;;;;5052403;28;20053;-55
2023/01/31 07:37:02;;;;;;;6.78;4.50;;;18.10;99.90;;;;;;5052116;28;20017;-53
2023/01/31 07:39:28;;;;;;;7.88;3.95;;;18.10;99.90;;;;;;5052150;28;20105;-53
2023/01/31 07:41:54;;;;;;;9.70;4.53;;;18.10;99.90;;;;;;5051902;28;20028;-54
2023/01/31 07:44:20;;;;;;;6.85;4.47;;;18.10;99.90;;;;;;5052077;28;20091;-54
2023/01/31 07:46:47;;;;;;;10.82;5.28;;;18.10;99.90;;;;;;5052013;28;20021;-54
2023/01/31 07:49:13;;;;;;;6.13;4.18;;;18.10;99.90;;;;;;5052014;28;20064;-53
2023/01/31 07:51:38;;;;;;;7.22;4.05;;;18.10;99.90;;;;;;5034366;28;20489;-53
2023/01/31 07:54:05;;;;;;;7.50;4.82;;;18.20;99.90;;;;;;5052073;28;20052;-54
2023/01/31 07:56:31;;;;;;;5.97;4.18;;;18.20;99.90;;;;;;5034007;28;20392;-53
2023/01/31 07:58:58;;;;;;;5.72;4.40;;;18.20;99.90;;;;;;5051910;28;20025;-55
2023/01/31 08:04:12;;;;;;;8.15;4.68;;;18.20;99.90;;;;;;5052183;28;20163;-55
2023/01/31 08:06:38;;;;;;;;;;;18.20;99.90;;;;;;5052626;28;20021;-55
2023/01/31 08:09:04;;;;;;;5.85;4.85;;;18.20;99.90;;;;;;5051774;28;19915;-56
2023/01/31 08:11:30;;;;;;;7.47;4.47;;;18.20;99.90;;;;;;5051679;28;20082;-55
2023/01/31 08:13:55;;;;;;;8.77;4.47;;;18.30;99.90;;;;;;5033733;28;20039;-54
2023/01/31 08:16:21;;;;;;;6.85;3.95;;;18.30;99.90;;;;;;5051618;28;20558;-54
2023/01/31 08:18:48;;;;;;;6.28;4.07;;;18.30;99.90;;;;;;5051641;28;20556;-55
2023/01/31 08:21:14;;;;;;;6.38;4.22;;;18.30;99.90;;;;;;5051985;28;20025;-56
2023/01/31 08:23:41;;;;;;;8.18;3.97;;;18.30;99.90;;;;;;5037877;28;20021;-55
2023/01/31 08:26:10;;;;;;;6.35;4.07;;;18.30;99.90;;;;;;5055703;28;20021;-55
2023/01/31 08:28:37;;;;;;;7.78;4.78;;;18.40;99.90;;;;;;5037517;28;20025;-56
2023/01/31 08:31:03;;;;;;;8.30;5.03;;;18.40;99.90;;;;;;5055442;28;20075;-56
2023/01/31 08:33:29;;;;;;;8.05;4.90;;;18.40;99.90;;;;;;5055490;28;20393;-55
2023/01/31 08:35:55;;;;;;;6.38;4.80;;;18.40;99.90;;;;;;5055506;28;20029;-53
2023/01/31 08:38:21;;;;;;;7.68;5.10;;;18.40;99.90;;;;;;5055349;28;20052;-53
2023/01/31 08:40:47;;;;;;;7.53;4.80;;;18.50;99.90;;;;;;5055175;28;20438;-56
2023/01/31 08:43:13;;;;;;;8.50;5.45;;;18.50;99.90;;;;;;5055099;28;20358;-55
2023/01/31 08:45:39;;;;;;;9.02;6.25;;;18.50;99.90;;;;;;5055265;28;20032;-55
2023/01/31 08:48:05;;;;;;;8.98;5.60;;;18.50;99.90;;;;;;5054994;28;20025;-49
2023/01/31 08:50:32;;;;;;;9.82;6.60;;;18.60;99.90;;;;;;5054937;28;20382;-54
2023/01/31 08:53:02;;;;;;;10.25;6.57;;;18.50;99.90;;;;;;5055045;28;20017;-54
2023/01/31 08:55:30;;;;;;;12.15;7.45;;;18.60;99.90;;;;;;5054881;28;20029;-55
2023/01/31 08:57:56;;;;;;;9.02;6.63;;;18.60;99.90;;;;;;5054884;28;20025;-57
2023/01/31 09:00:22;;;;;;;10.00;6.70;;;18.60;99.90;;;;;;5054688;28;20045;-56
2023/01/31 09:02:57;;;;;;;10.68;6.72;;;18.60;99.90;;;;;;5054728;28;20705;-57
2023/01/31 09:05:24;;;;;;;10.00;6.70;;;18.70;99.90;;;;;;5054750;28;20029;-55
2023/01/31 09:07:49;;;;;;;12.85;6.60;;;18.70;99.90;;;;;;5054668;28;20108;-55
2023/01/31 09:10:17;;;;;;;9.48;7.15;;;18.70;99.90;;;;;;5054432;28;20116;-55
2023/01/31 09:12:42;;;;;;;11.77;7.10;;;18.80;99.90;;;;;;5054957;28;20029;-55
2023/01/31 09:15:09;;;;;;;9.60;6.82;;;18.80;99.90;;;;;;5054653;28;20032;-55
2023/01/31 09:17:34;;;;;;;11.35;7.55;;;18.80;99.90;;;;;;5054383;28;20040;-56
2023/01/31 09:20:05;;;;;;;13.45;6.88;;;18.80;99.90;;;;;;5054523;28;20029;-56
2023/01/31 09:22:32;;;;;;;13.45;7.18;;;18.80;99.90;;;;;;5054390;28;20027;-55
2023/01/31 09:24:58;;;;;;;13.55;7.43;;;18.80;99.90;;;;;;5036385;28;20032;-56
2023/01/31 09:27:24;;;;;;;11.02;7.20;;;18.90;99.90;;;;;;5054248;28;20025;-56
2023/01/31 09:29:50;;;;;;;11.52;7.57;;;18.90;99.90;;;;;;5054280;28;20037;-56
2023/01/31 09:32:15;;;;;;;10.02;7.57;;;18.90;99.90;;;;;;5054129;28;20025;-57
2023/01/31 09:34:41;;;;;;;13.20;6.95;;;18.90;99.90;;;;;;5054444;28;20103;-57
2023/01/31 09:37:07;;;;;;;12.38;6.82;;;19.00;99.90;;;;;;5054133;28;20021;-56
2023/01/31 09:39:33;;;;;;;11.65;6.70;;;19.00;99.90;;;;;;5054162;28;20078;-57
2023/01/31 09:42:21;;;;;;;13.40;7.40;;;19.10;99.90;;;;;;5054014;28;20147;-57
2023/01/31 09:44:57;;;;;;;11.23;6.63;;;19.00;99.90;;;;;;5054127;28;20017;-56
2023/01/31 09:47:30;;;;;;;10.98;7.32;;;19.10;99.90;;;;;;5053933;28;20051;-56
2023/01/31 09:50:37;;;;;;;12.43;7.05;;;19.10;99.90;;;;;;5053973;28;20051;-56
2023/01/31 09:53:03;;;;;;;14.65;7.00;;;19.20;99.90;;;;;;5053050;28;20368;-56
2023/01/31 09:55:36;;;;;;;10.75;7.28;;;19.20;99.90;;;;;;5053778;28;20103;-56
2023/01/31 09:58:26;;;;;;;13.38;7.65;;;19.20;99.90;;;;;;5053802;28;20029;-56
2023/01/31 10:01:21;;;;;;;10.60;7.03;;;19.30;99.90;;;;;;5053552;28;20052;-57
2023/01/31 10:04:23;;;;;;;12.43;6.78;;;19.30;99.90;;;;;;5053761;28;20039;-56
2023/01/31 10:07:09;;;;;;;11.95;7.13;;;19.30;99.90;;;;;;5053596;28;20033;-57
2023/01/31 10:09:51;;;;;;;13.70;7.53;;;19.40;99.90;;;;;;5053472;28;20033;-56
2023/01/31 10:12:22;;;;;;;9.98;7.03;;;19.40;99.90;;;;;;5053719;28;20057;-56
2023/01/31 10:14:56;;;;;;;11.00;7.20;;;19.40;99.90;;;;;;5053427;28;20024;-58
2023/01/31 10:17:21;;;;;;;10.23;7.10;;;19.50;99.90;;;;;;5053349;28;20104;-56
2023/01/31 10:20:21;;;;;;;12.57;7.30;;;19.50;99.90;;;;;;5053494;28;20099;-56
2023/01/31 10:22:59;;;;;;;10.85;7.28;;;19.50;99.90;;;;;;5042213;28;20025;-55
2023/01/31 10:25:26;;;;;;;9.52;6.93;;;19.60;99.90;;;;;;5053199;28;20017;-56
2023/01/31 10:28:29;;;;;;;9.88;6.88;;;19.60;99.90;;;;;;5053110;28;20096;-56
2023/01/31 10:31:16;;;;;;;9.88;7.13;;;19.70;99.90;;;;;;5043165;28;20045;-56
2023/01/31 10:34:12;;;;;;;11.80;6.63;;;19.80;99.90;;;;;;5053114;28;20051;-56
2023/01/31 10:37:18;;;;;;;15.43;7.20;;;19.80;99.90;;;;;;5034314;28;20032;-57
2023/01/31 10:39:54;;;;;;;9.10;5.80;;;19.90;99.90;;;;;;5043695;28;20414;-57
2023/01/31 10:42:32;;;;;;;14.90;6.37;;;19.90;99.90;;;;;;5050236;28;20560;-56
2023/01/31 10:45:05;;;;;;;13.43;6.53;;;20.00;99.90;;;;;;5051496;28;20021;-53
2023/01/31 10:47:41;;;;;;;10.80;6.30;;;20.00;99.90;;;;;;5050146;28;20107;-57
2023/01/31 10:50:18;;;;;;;14.93;7.40;;;20.10;99.90;;;;;;5051722;28;20478;-54
2023/01/31 10:52:48;;;;;;;11.02;6.07;;;20.10;99.90;;;;;;5032271;28;20031;-54
2023/01/31 10:55:43;;;;;;;12.55;6.45;;;20.20;99.90;;;;;;5052304;28;20118;-56
2023/01/31 10:58:21;;;;;;;9.48;6.07;;;20.20;99.90;;;;;;5051692;28;20104;-58
2023/01/31 11:00:47;;;;;;;9.90;6.30;;;20.30;99.90;;;;;;5063980;28;20102;-55
2023/01/31 11:03:13;;;;;;;14.57;6.05;;;20.40;99.90;;;;;;5032126;28;20033;-56
2023/01/31 11:05:47;;;;;;;8.43;6.03;;;20.40;99.90;;;;;;5032252;28;20942;-54
2023/01/31 11:08:28;;;;;;;8.82;6.03;;;20.40;99.90;;;;;;5032035;28;20034;-54
2023/01/31 11:10:56;;;;;;;10.70;6.07;;;20.50;99.90;;;;;;5031982;28;20033;-54
2023/01/31 11:13:22;;;;;;;;;;;20.50;99.90;;;;;;5032562;28;20100;-53
2023/01/31 11:15:52;;;;;;;9.30;5.65;;;20.60;99.90;;;;;;5032170;28;20001;-54
2023/01/31 11:18:29;;;;;;;11.27;5.80;;;20.70;99.90;;;;;;5029251;28;20026;-55
2023/01/31 11:20:57;;;;;;;10.30;6.18;;;20.70;99.90;;;;;;5029865;28;20030;-49
2023/01/31 11:23:25;;;;;;;8.80;5.85;;;20.80;99.90;;;;;;5030777;28;20381;-53
2023/01/31 11:25:54;;;;;;;10.00;5.65;;;20.80;99.90;;;;;;5030792;28;20018;-54
2023/01/31 11:28:31;;;;;;;8.43;5.85;;;20.80;99.90;;;;;;5030880;28;20036;-54
2023/01/31 11:30:57;;;;;;;;;;;20.80;99.90;;;;;;5028902;28;20026;-52
2023/01/31 11:33:44;;;;;;;8.05;6.00;;;21.00;99.90;;;;;;5031573;28;19955;-55
2023/01/31 11:36:15;;;;;;;10.85;5.22;;;20.90;99.90;;;;;;5030717;28;20109;-54
2023/01/31 11:38:41;;;;;;;8.45;5.93;;;21.00;99.90;;;;;;5029293;28;20030;-54
2023/01/31 11:41:26;;;;;;;10.98;6.35;;;21.10;99.90;;;;;;5031645;28;20025;-58
2023/01/31 11:44:25;;;;;;;10.70;5.90;;;21.10;99.90;;;;;;5030614;28;20021;-58
2023/01/31 11:47:03;;;;;;;9.55;5.07;;;21.10;99.90;;;;;;4997300;28;20033;-56
2023/01/31 11:49:41;;;;;;;15.77;5.65;;;21.10;99.90;;;;;;5029976;28;20026;-58
2023/01/31 11:52:27;;;;;;;10.85;5.13;;;21.10;99.90;;;;;;5029813;28;20021;-55
2023/01/31 11:54:59;;;;;;;8.07;5.63;;;21.10;99.90;;;;;;5031302;28;20033;-55
2023/01/31 11:57:29;;;;;;;7.55;5.10;;;21.20;99.90;;;;;;5031989;28;20097;-55
2023/01/31 11:59:57;;;;;;;20.67;5.78;;;21.20;99.90;;;;;;5039763;28;20036;-57
2023/01/31 12:02:38;;;;;;;8.38;5.88;;;21.30;99.90;;;;;;5055882;28;20029;-55
2023/01/31 12:05:16;;;;;;;10.18;5.68;;;21.30;99.90;;;;;;5055762;28;20427;-56
2023/01/31 12:07:49;;;;;;;;;;;21.30;99.90;;;;;;5043950;28;20025;-61
2023/01/31 12:10:38;;;;;;;7.78;4.85;;;21.40;99.90;;;;;;5043699;28;19924;-60
2023/01/31 12:13:16;;;;;;;9.23;4.70;;;21.40;99.90;;;;;;5037712;28;20017;-62
2023/01/31 12:16:05;;;;;;;8.60;4.80;;;21.40;99.90;;;;;;5047798;28;20029;-59
2023/01/31 12:19:10;;;;;;;6.85;4.70;;;21.50;99.90;;;;;;5036119;28;20036;-60
2023/01/31 12:22:09;;;;;;;10.70;4.85;;;21.50;99.90;;;;;;5017203;28;20041;-65
2023/01/31 12:24:50;;;;;;;7.60;4.20;;;21.50;99.90;;;;;;5042234;28;20490;-66
2023/01/31 12:27:36;;;;;;;6.30;4.43;;;21.60;99.90;;;;;;5036528;28;20021;-63
2023/01/31 12:30:33;;;;;;;7.40;4.72;;;21.60;99.90;;;;;;5023742;28;20049;-56
2023/01/31 12:33:43;;;;;;;12.23;5.25;;;21.60;99.90;;;;;;5044007;28;20025;-62
2023/01/31 12:36:09;;;;;;;9.25;4.82;;;21.70;99.90;;;;;;5048064;28;20039;-63
2023/01/31 12:38:41;;;;;;;8.73;5.10;;;21.70;99.90;;;;;;5054934;28;20377;-64
2023/01/31 12:41:28;;;;;;;7.13;4.97;;;21.70;99.90;;;;;;5054991;28;20079;-62
2023/01/31 12:44:14;;;;;;;;;;;21.80;99.90;;;;;;5047686;28;20371;-64
2023/01/31 12:46:52;;;;;;;8.27;4.68;;;21.80;99.90;;;;;;5037364;28;19963;-64
2023/01/31 12:49:27;;;;;;;;;;;21.90;99.90;;;;;;5055169;28;20037;-62
2023/01/31 12:52:33;;;;;;;9.27;5.45;;;21.90;99.90;;;;;;5048071;28;19909;-61
2023/01/31 12:55:16;;;;;;;7.53;5.45;;;21.90;99.90;;;;;;5017735;28;20033;-64
2023/01/31 12:58:01;;;;;;;7.90;5.38;;;21.90;99.90;;;;;;5033605;28;20484;-60
2023/01/31 13:00:55;;;;;;;12.85;5.43;;;22.00;99.90;;;;;;5032958;28;20053;-67
2023/01/31 13:03:28;;;;;;;12.13;5.45;;;22.00;99.90;;;;;;5031302;28;20432;-63
2023/01/31 13:06:03;;;;;;;10.52;5.43;;;22.00;99.90;;;;;;5047328;28;20035;-61
2023/01/31 13:08:31;;;;;;;12.68;6.20;;;22.00;99.90;;;;;;5037255;28;20409;-61